sensor_id;sensor_type;location;lat;lon;timestamp;P1;durP1;ratioP1;P2;durP2;ratioP2
25917;SDS011;13899;51.174;4.456;2022-12-10T00:02:08;78.13;;;24.90;;
25917;SDS011;13899;51.174;4.456;2022-12-10T00:04:34;79.77;;;28.10;;
25917;SDS011;13899;51.174;4.456;2022-12-10T00:07:00;72.88;;;26.17;;
25917;SDS011;13899;51.174;4.456;2022-12-10T00:09:26;101.30;;;30.07;;
25917;SDS011;13899;51.174;4.456;2022-12-10T00:11:51;88.20;;;30.10;;
25917;SDS011;13899;51.174;4.456;2022-12-10T00:14:17;89.97;;;29.40;;
25917;SDS011;13899;51.174;4.456;2022-12-10T00:16:43;82.90;;;28.07;;
25917;SDS011;13899;51.174;4.456;2022-12-10T00:19:08;95.50;;;30.53;;
25917;SDS011;13899;51.174;4.456;2022-12-10T00:21:34;100.63;;;34.13;;
25917;SDS011;13899;51.174;4.456;2022-12-10T00:24:01;109.32;;;37.25;;
25917;SDS011;13899;51.174;4.456;2022-12-10T00:26:31;103.88;;;33.88;;
25917;SDS011;13899;51.174;4.456;2022-12-10T00:29:00;108.38;;;36.78;;
25917;SDS011;13899;51.174;4.456;2022-12-10T00:31:28;108.00;;;37.33;;
25917;SDS011;13899;51.174;4.456;2022-12-10T00:33:56;107.55;;;36.03;;
25917;SDS011;13899;51.174;4.456;2022-12-10T00:36:24;102.47;;;34.80;;
25917;SDS011;13899;51.174;4.456;2022-12-10T00:39:00;107.72;;;34.95;;
25917;SDS011;13899;51.174;4.456;2022-12-10T00:41:27;119.82;;;37.15;;
25917;SDS011;13899;51.174;4.456;2022-12-10T00:43:53;76.82;;;28.73;;
25917;SDS011;13899;51.174;4.456;2022-12-10T00:46:32;88.47;;;29.97;;
25917;SDS011;13899;51.174;4.456;2022-12-10T00:48:58;117.53;;;39.08;;
25917;SDS011;13899;51.174;4.456;2022-12-10T00:51:24;107.97;;;36.58;;
25917;SDS011;13899;51.174;4.456;2022-12-10T00:53:51;111.20;;;38.00;;
25917;SDS011;13899;51.174;4.456;2022-12-10T00:56:19;114.32;;;39.40;;
25917;SDS011;13899;51.174;4.456;2022-12-10T00:58:46;113.28;;;40.10;;
25917;SDS011;13899;51.174;4.456;2022-12-10T01:03:48;113.15;;;40.80;;
25917;SDS011;13899;51.174;4.456;2022-12-10T01:06:16;127.03;;;38.20;;
25917;SDS011;13899;51.174;4.456;2022-12-10T01:08:47;125.50;;;41.35;;
25917;SDS011;13899;51.174;4.456;2022-12-10T01:11:14;111.18;;;37.65;;
25917;SDS011;13899;51.174;4.456;2022-12-10T01:13:42;112.72;;;35.78;;
25917;SDS011;13899;51.174;4.456;2022-12-10T01:16:09;113.35;;;36.63;;
25917;SDS011;13899;51.174;4.456;2022-12-10T01:18:35;149.82;;;35.58;;
25917;SDS011;13899;51.174;4.456;2022-12-10T01:21:05;112.73;;;31.07;;
25917;SDS011;13899;51.174;4.456;2022-12-10T01:23:33;129.23;;;38.17;;
25917;SDS011;13899;51.174;4.456;2022-12-10T01:26:05;125.85;;;38.53;;
25917;SDS011;13899;51.174;4.456;2022-12-10T01:28:32;127.05;;;39.28;;
25917;SDS011;13899;51.174;4.456;2022-12-10T01:31:00;316.70;;;48.90;;
25917;SDS011;13899;51.174;4.456;2022-12-10T01:33:31;190.00;;;36.47;;
25917;SDS011;13899;51.174;4.456;2022-12-10T01:36:01;182.98;;;38.85;;
25917;SDS011;13899;51.174;4.456;2022-12-10T01:38:31;143.82;;;33.28;;
25917;SDS011;13899;51.174;4.456;2022-12-10T01:40:57;167.87;;;37.73;;
25917;SDS011;13899;51.174;4.456;2022-12-10T01:43:24;171.18;;;36.67;;
25917;SDS011;13899;51.174;4.456;2022-12-10T01:45:50;129.45;;;36.78;;
25917;SDS011;13899;51.174;4.456;2022-12-10T01:48:16;158.87;;;39.00;;
25917;SDS011;13899;51.174;4.456;2022-12-10T01:50:41;92.93;;;29.07;;
25917;SDS011;13899;51.174;4.456;2022-12-10T01:53:07;133.60;;;39.37;;
25917;SDS011;13899;51.174;4.456;2022-12-10T01:55:45;139.40;;;38.65;;
25917;SDS011;13899;51.174;4.456;2022-12-10T01:58:16;127.88;;;37.10;;
25917;SDS011;13899;51.174;4.456;2022-12-10T02:00:45;146.93;;;38.28;;
25917;SDS011;13899;51.174;4.456;2022-12-10T02:03:28;159.55;;;36.33;;
25917;SDS011;13899;51.174;4.456;2022-12-10T02:11:49;115.78;;;35.05;;
25917;SDS011;13899;51.174;4.456;2022-12-10T02:14:26;132.07;;;38.05;;
25917;SDS011;13899;51.174;4.456;2022-12-10T02:16:57;162.50;;;36.72;;
25917;SDS011;13899;51.174;4.456;2022-12-10T02:22:06;200.20;;;36.80;;
25917;SDS011;13899;51.174;4.456;2022-12-10T02:24:34;126.40;;;35.05;;
25917;SDS011;13899;51.174;4.456;2022-12-10T02:29:42;155.43;;;34.75;;
25917;SDS011;13899;51.174;4.456;2022-12-10T02:32:12;356.90;;;43.88;;
25917;SDS011;13899;51.174;4.456;2022-12-10T02:34:48;203.68;;;37.83;;
25917;SDS011;13899;51.174;4.456;2022-12-10T02:37:18;147.97;;;25.10;;
25917;SDS011;13899;51.174;4.456;2022-12-10T02:39:48;176.82;;;33.67;;
25917;SDS011;13899;51.174;4.456;2022-12-10T02:42:17;149.85;;;31.95;;
25917;SDS011;13899;51.174;4.456;2022-12-10T02:44:47;139.23;;;33.60;;
25917;SDS011;13899;51.174;4.456;2022-12-10T02:49:40;241.18;;;36.67;;
25917;SDS011;13899;51.174;4.456;2022-12-10T02:52:12;198.02;;;35.05;;
25917;SDS011;13899;51.174;4.456;2022-12-10T02:54:40;188.43;;;36.28;;
25917;SDS011;13899;51.174;4.456;2022-12-10T02:57:30;160.98;;;38.85;;
25917;SDS011;13899;51.174;4.456;2022-12-10T03:00:19;181.95;;;31.48;;
25917;SDS011;13899;51.174;4.456;2022-12-10T03:05:35;178.18;;;32.95;;
25917;SDS011;13899;51.174;4.456;2022-12-10T03:08:14;198.07;;;33.47;;
25917;SDS011;13899;51.174;4.456;2022-12-10T03:10:42;154.85;;;34.00;;
25917;SDS011;13899;51.174;4.456;2022-12-10T03:13:11;187.02;;;39.03;;
25917;SDS011;13899;51.174;4.456;2022-12-10T03:15:40;174.10;;;37.75;;
25917;SDS011;13899;51.174;4.456;2022-12-10T03:18:08;160.13;;;34.85;;
25917;SDS011;13899;51.174;4.456;2022-12-10T03:20:36;159.30;;;34.20;;
25917;SDS011;13899;51.174;4.456;2022-12-10T03:23:07;191.25;;;35.42;;
25917;SDS011;13899;51.174;4.456;2022-12-10T03:25:35;188.45;;;34.90;;
25917;SDS011;13899;51.174;4.456;2022-12-10T03:28:03;187.65;;;36.83;;
25917;SDS011;13899;51.174;4.456;2022-12-10T03:30:33;132.55;;;34.88;;
25917;SDS011;13899;51.174;4.456;2022-12-10T03:33:01;172.15;;;37.35;;
25917;SDS011;13899;51.174;4.456;2022-12-10T03:35:27;203.23;;;38.28;;
25917;SDS011;13899;51.174;4.456;2022-12-10T03:37:53;233.37;;;37.27;;
25917;SDS011;13899;51.174;4.456;2022-12-10T03:40:20;161.93;;;37.38;;
25917;SDS011;13899;51.174;4.456;2022-12-10T03:42:48;221.07;;;36.70;;
25917;SDS011;13899;51.174;4.456;2022-12-10T03:45:13;176.47;;;36.37;;
25917;SDS011;13899;51.174;4.456;2022-12-10T03:47:39;169.00;;;26.27;;
25917;SDS011;13899;51.174;4.456;2022-12-10T03:50:05;167.48;;;34.83;;
25917;SDS011;13899;51.174;4.456;2022-12-10T03:52:31;129.15;;;26.40;;
25917;SDS011;13899;51.174;4.456;2022-12-10T03:54:57;184.70;;;35.03;;
25917;SDS011;13899;51.174;4.456;2022-12-10T03:57:23;124.43;;;27.73;;
25917;SDS011;13899;51.174;4.456;2022-12-10T03:59:48;184.50;;;28.07;;
25917;SDS011;13899;51.174;4.456;2022-12-10T04:02:14;163.53;;;36.23;;
25917;SDS011;13899;51.174;4.456;2022-12-10T04:04:39;163.30;;;37.50;;
25917;SDS011;13899;51.174;4.456;2022-12-10T04:07:05;144.37;;;30.50;;
25917;SDS011;13899;51.174;4.456;2022-12-10T04:09:31;188.77;;;37.80;;
25917;SDS011;13899;51.174;4.456;2022-12-10T04:11:57;124.40;;;30.97;;
25917;SDS011;13899;51.174;4.456;2022-12-10T04:14:23;176.27;;;37.65;;
25917;SDS011;13899;51.174;4.456;2022-12-10T04:17:08;155.07;;;37.05;;
25917;SDS011;13899;51.174;4.456;2022-12-10T04:19:34;255.67;;;38.93;;
25917;SDS011;13899;51.174;4.456;2022-12-10T04:21:59;431.27;;;44.17;;
25917;SDS011;13899;51.174;4.456;2022-12-10T04:24:43;467.15;;;48.90;;
25917;SDS011;13899;51.174;4.456;2022-12-10T04:27:32;279.77;;;39.50;;
25917;SDS011;13899;51.174;4.456;2022-12-10T04:30:00;139.63;;;33.40;;
25917;SDS011;13899;51.174;4.456;2022-12-10T04:32:27;217.13;;;37.00;;
25917;SDS011;13899;51.174;4.456;2022-12-10T04:34:54;185.95;;;36.33;;
25917;SDS011;13899;51.174;4.456;2022-12-10T04:39:46;172.95;;;32.22;;
25917;SDS011;13899;51.174;4.456;2022-12-10T04:42:14;158.15;;;30.70;;
25917;SDS011;13899;51.174;4.456;2022-12-10T04:44:39;155.73;;;29.05;;
25917;SDS011;13899;51.174;4.456;2022-12-10T04:47:06;227.10;;;38.87;;
25917;SDS011;13899;51.174;4.456;2022-12-10T04:49:32;187.32;;;33.85;;
25917;SDS011;13899;51.174;4.456;2022-12-10T04:51:58;247.17;;;31.90;;
25917;SDS011;13899;51.174;4.456;2022-12-10T04:54:24;178.23;;;31.13;;
25917;SDS011;13899;51.174;4.456;2022-12-10T04:56:50;224.38;;;35.15;;
25917;SDS011;13899;51.174;4.456;2022-12-10T04:59:16;144.83;;;34.13;;
25917;SDS011;13899;51.174;4.456;2022-12-10T05:01:42;181.38;;;34.25;;
25917;SDS011;13899;51.174;4.456;2022-12-10T05:04:09;107.55;;;25.63;;
25917;SDS011;13899;51.174;4.456;2022-12-10T05:06:37;158.30;;;34.55;;
25917;SDS011;13899;51.174;4.456;2022-12-10T05:09:03;226.05;;;38.25;;
25917;SDS011;13899;51.174;4.456;2022-12-10T05:11:29;177.63;;;34.38;;
25917;SDS011;13899;51.174;4.456;2022-12-10T05:13:56;185.50;;;33.63;;
25917;SDS011;13899;51.174;4.456;2022-12-10T05:16:23;191.77;;;33.83;;
25917;SDS011;13899;51.174;4.456;2022-12-10T05:18:49;193.27;;;30.42;;
25917;SDS011;13899;51.174;4.456;2022-12-10T05:21:17;152.20;;;35.25;;
25917;SDS011;13899;51.174;4.456;2022-12-10T05:23:45;237.57;;;35.65;;
25917;SDS011;13899;51.174;4.456;2022-12-10T05:26:13;211.65;;;34.63;;
25917;SDS011;13899;51.174;4.456;2022-12-10T05:28:48;394.42;;;44.13;;
25917;SDS011;13899;51.174;4.456;2022-12-10T05:31:16;178.10;;;32.85;;
25917;SDS011;13899;51.174;4.456;2022-12-10T05:33:50;182.05;;;33.00;;
25917;SDS011;13899;51.174;4.456;2022-12-10T05:36:18;172.57;;;32.38;;
25917;SDS011;13899;51.174;4.456;2022-12-10T05:38:45;325.45;;;41.05;;
25917;SDS011;13899;51.174;4.456;2022-12-10T05:41:13;250.95;;;37.00;;
25917;SDS011;13899;51.174;4.456;2022-12-10T05:43:43;216.80;;;32.17;;
25917;SDS011;13899;51.174;4.456;2022-12-10T05:46:10;251.20;;;34.85;;
25917;SDS011;13899;51.174;4.456;2022-12-10T05:48:37;252.82;;;33.58;;
25917;SDS011;13899;51.174;4.456;2022-12-10T05:51:04;191.13;;;28.53;;
25917;SDS011;13899;51.174;4.456;2022-12-10T05:53:30;264.17;;;36.28;;
25917;SDS011;13899;51.174;4.456;2022-12-10T05:56:03;244.50;;;35.00;;
25917;SDS011;13899;51.174;4.456;2022-12-10T05:58:30;182.43;;;36.33;;
25917;SDS011;13899;51.174;4.456;2022-12-10T06:00:56;241.02;;;39.22;;
25917;SDS011;13899;51.174;4.456;2022-12-10T06:03:23;139.32;;;27.50;;
25917;SDS011;13899;51.174;4.456;2022-12-10T06:05:49;202.68;;;35.17;;
25917;SDS011;13899;51.174;4.456;2022-12-10T06:08:15;133.80;;;29.03;;
25917;SDS011;13899;51.174;4.456;2022-12-10T06:10:40;197.80;;;29.80;;
25917;SDS011;13899;51.174;4.456;2022-12-10T06:13:06;162.53;;;27.17;;
25917;SDS011;13899;51.174;4.456;2022-12-10T06:15:32;207.77;;;33.97;;
25917;SDS011;13899;51.174;4.456;2022-12-10T06:17:58;171.32;;;35.35;;
25917;SDS011;13899;51.174;4.456;2022-12-10T06:20:24;172.68;;;33.47;;
25917;SDS011;13899;51.174;4.456;2022-12-10T06:25:16;153.35;;;31.60;;
25917;SDS011;13899;51.174;4.456;2022-12-10T06:27:42;167.27;;;31.40;;
25917;SDS011;13899;51.174;4.456;2022-12-10T06:30:08;142.40;;;32.80;;
25917;SDS011;13899;51.174;4.456;2022-12-10T06:32:34;189.73;;;37.30;;
25917;SDS011;13899;51.174;4.456;2022-12-10T06:35:00;203.47;;;32.40;;
25917;SDS011;13899;51.174;4.456;2022-12-10T06:37:25;168.13;;;35.30;;
25917;SDS011;13899;51.174;4.456;2022-12-10T06:39:51;110.27;;;25.80;;
25917;SDS011;13899;51.174;4.456;2022-12-10T06:42:17;198.27;;;34.35;;
25917;SDS011;13899;51.174;4.456;2022-12-10T06:44:44;210.10;;;35.00;;
25917;SDS011;13899;51.174;4.456;2022-12-10T06:47:09;100.47;;;24.93;;
25917;SDS011;13899;51.174;4.456;2022-12-10T06:49:35;195.53;;;33.13;;
25917;SDS011;13899;51.174;4.456;2022-12-10T06:52:01;108.37;;;25.23;;
25917;SDS011;13899;51.174;4.456;2022-12-10T06:54:27;126.20;;;22.83;;
25917;SDS011;13899;51.174;4.456;2022-12-10T06:56:52;213.90;;;31.73;;
25917;SDS011;13899;51.174;4.456;2022-12-10T06:59:18;172.10;;;32.67;;
25917;SDS011;13899;51.174;4.456;2022-12-10T07:01:45;160.70;;;31.35;;
25917;SDS011;13899;51.174;4.456;2022-12-10T07:04:11;116.97;;;32.15;;
25917;SDS011;13899;51.174;4.456;2022-12-10T07:06:37;181.87;;;33.77;;
25917;SDS011;13899;51.174;4.456;2022-12-10T07:09:02;99.87;;;23.90;;
25917;SDS011;13899;51.174;4.456;2022-12-10T07:11:28;145.33;;;26.87;;
25917;SDS011;13899;51.174;4.456;2022-12-10T07:13:55;207.63;;;32.88;;
25917;SDS011;13899;51.174;4.456;2022-12-10T07:16:22;135.98;;;26.02;;
25917;SDS011;13899;51.174;4.456;2022-12-10T07:18:50;229.00;;;35.58;;
25917;SDS011;13899;51.174;4.456;2022-12-10T07:21:18;151.73;;;29.98;;
25917;SDS011;13899;51.174;4.456;2022-12-10T07:23:46;151.25;;;32.40;;
25917;SDS011;13899;51.174;4.456;2022-12-10T07:26:12;168.15;;;32.30;;
25917;SDS011;13899;51.174;4.456;2022-12-10T07:28:38;126.97;;;26.20;;
25917;SDS011;13899;51.174;4.456;2022-12-10T07:31:05;146.45;;;31.95;;
25917;SDS011;13899;51.174;4.456;2022-12-10T07:33:32;166.52;;;35.10;;
25917;SDS011;13899;51.174;4.456;2022-12-10T07:35:58;171.32;;;32.58;;
25917;SDS011;13899;51.174;4.456;2022-12-10T07:38:24;201.87;;;33.60;;
25917;SDS011;13899;51.174;4.456;2022-12-10T07:40:50;150.07;;;30.90;;
25917;SDS011;13899;51.174;4.456;2022-12-10T07:43:16;164.25;;;31.48;;
25917;SDS011;13899;51.174;4.456;2022-12-10T07:45:41;160.50;;;33.90;;
25917;SDS011;13899;51.174;4.456;2022-12-10T07:48:07;102.07;;;25.90;;
25917;SDS011;13899;51.174;4.456;2022-12-10T07:50:33;120.37;;;25.53;;
25917;SDS011;13899;51.174;4.456;2022-12-10T07:52:59;155.10;;;34.27;;
25917;SDS011;13899;51.174;4.456;2022-12-10T07:55:24;305.07;;;39.77;;
25917;SDS011;13899;51.174;4.456;2022-12-10T07:57:50;173.50;;;33.60;;
25917;SDS011;13899;51.174;4.456;2022-12-10T08:00:16;156.30;;;28.23;;
25917;SDS011;13899;51.174;4.456;2022-12-10T08:02:41;136.10;;;28.77;;
25917;SDS011;13899;51.174;4.456;2022-12-10T08:05:07;113.70;;;26.27;;
25917;SDS011;13899;51.174;4.456;2022-12-10T08:07:33;170.20;;;27.42;;
25917;SDS011;13899;51.174;4.456;2022-12-10T08:09:59;148.70;;;25.73;;
25917;SDS011;13899;51.174;4.456;2022-12-10T08:12:24;118.57;;;23.93;;
25917;SDS011;13899;51.174;4.456;2022-12-10T08:14:50;163.47;;;34.43;;
25917;SDS011;13899;51.174;4.456;2022-12-10T08:17:16;134.40;;;26.53;;
25917;SDS011;13899;51.174;4.456;2022-12-10T08:19:41;178.73;;;37.43;;
25917;SDS011;13899;51.174;4.456;2022-12-10T08:22:07;140.37;;;35.63;;
25917;SDS011;13899;51.174;4.456;2022-12-10T08:24:32;158.50;;;36.40;;
25917;SDS011;13899;51.174;4.456;2022-12-10T08:26:58;175.13;;;35.57;;
25917;SDS011;13899;51.174;4.456;2022-12-10T08:29:24;117.63;;;26.10;;
25917;SDS011;13899;51.174;4.456;2022-12-10T08:31:49;142.87;;;33.73;;
25917;SDS011;13899;51.174;4.456;2022-12-10T08:34:16;168.67;;;29.83;;
25917;SDS011;13899;51.174;4.456;2022-12-10T08:36:43;177.70;;;36.53;;
25917;SDS011;13899;51.174;4.456;2022-12-10T08:39:09;150.77;;;36.05;;
25917;SDS011;13899;51.174;4.456;2022-12-10T08:41:35;147.60;;;34.80;;
25917;SDS011;13899;51.174;4.456;2022-12-10T08:44:01;176.30;;;35.60;;
25917;SDS011;13899;51.174;4.456;2022-12-10T08:46:27;140.05;;;28.05;;
25917;SDS011;13899;51.174;4.456;2022-12-10T08:48:53;98.13;;;25.02;;
25917;SDS011;13899;51.174;4.456;2022-12-10T08:51:19;170.63;;;36.97;;
25917;SDS011;13899;51.174;4.456;2022-12-10T08:53:46;160.27;;;36.00;;
25917;SDS011;13899;51.174;4.456;2022-12-10T08:56:11;146.70;;;30.10;;
25917;SDS011;13899;51.174;4.456;2022-12-10T08:58:38;127.55;;;27.73;;
25917;SDS011;13899;51.174;4.456;2022-12-10T09:01:08;112.82;;;27.25;;
25917;SDS011;13899;51.174;4.456;2022-12-10T09:03:36;157.43;;;32.92;;
25917;SDS011;13899;51.174;4.456;2022-12-10T09:06:03;177.73;;;33.65;;
25917;SDS011;13899;51.174;4.456;2022-12-10T09:08:33;159.90;;;36.28;;
25917;SDS011;13899;51.174;4.456;2022-12-10T09:11:13;133.35;;;34.88;;
25917;SDS011;13899;51.174;4.456;2022-12-10T09:13:41;132.60;;;33.10;;
25917;SDS011;13899;51.174;4.456;2022-12-10T09:16:07;165.73;;;39.28;;
25917;SDS011;13899;51.174;4.456;2022-12-10T09:18:33;183.45;;;35.58;;
25917;SDS011;13899;51.174;4.456;2022-12-10T09:20:59;237.87;;;57.97;;
25917;SDS011;13899;51.174;4.456;2022-12-10T09:23:25;100.00;;;30.27;;
25917;SDS011;13899;51.174;4.456;2022-12-10T09:25:50;94.30;;;24.93;;
25917;SDS011;13899;51.174;4.456;2022-12-10T09:28:16;163.30;;;35.60;;
25917;SDS011;13899;51.174;4.456;2022-12-10T09:30:41;136.00;;;31.87;;
25917;SDS011;13899;51.174;4.456;2022-12-10T09:33:07;136.07;;;28.10;;
25917;SDS011;13899;51.174;4.456;2022-12-10T09:35:33;184.53;;;32.13;;
25917;SDS011;13899;51.174;4.456;2022-12-10T09:37:58;120.20;;;26.30;;
25917;SDS011;13899;51.174;4.456;2022-12-10T09:40:47;158.10;;;36.07;;
25917;SDS011;13899;51.174;4.456;2022-12-10T09:43:23;147.43;;;32.63;;
25917;SDS011;13899;51.174;4.456;2022-12-10T09:51:07;140.90;;;32.70;;
25917;SDS011;13899;51.174;4.456;2022-12-10T09:53:38;163.75;;;35.72;;
25917;SDS011;13899;51.174;4.456;2022-12-10T09:58:31;140.43;;;35.10;;
25917;SDS011;13899;51.174;4.456;2022-12-10T10:01:03;133.40;;;34.45;;
25917;SDS011;13899;51.174;4.456;2022-12-10T10:03:31;128.70;;;34.40;;
25917;SDS011;13899;51.174;4.456;2022-12-10T10:06:00;125.30;;;36.03;;
25917;SDS011;13899;51.174;4.456;2022-12-10T10:08:45;132.27;;;37.60;;
25917;SDS011;13899;51.174;4.456;2022-12-10T10:11:14;131.50;;;35.47;;
25917;SDS011;13899;51.174;4.456;2022-12-10T10:13:49;121.85;;;33.65;;
25917;SDS011;13899;51.174;4.456;2022-12-10T10:19:19;122.65;;;31.98;;
25917;SDS011;13899;51.174;4.456;2022-12-10T10:21:50;121.15;;;30.90;;
25917;SDS011;13899;51.174;4.456;2022-12-10T10:24:17;125.95;;;34.80;;
25917;SDS011;13899;51.174;4.456;2022-12-10T10:26:46;144.13;;;33.60;;
25917;SDS011;13899;51.174;4.456;2022-12-10T10:29:13;130.02;;;31.00;;
25917;SDS011;13899;51.174;4.456;2022-12-10T10:31:42;134.07;;;32.38;;
25917;SDS011;13899;51.174;4.456;2022-12-10T10:34:21;125.45;;;26.67;;
25917;SDS011;13899;51.174;4.456;2022-12-10T10:36:52;125.65;;;34.50;;
25917;SDS011;13899;51.174;4.456;2022-12-10T10:39:26;145.80;;;34.30;;
25917;SDS011;13899;51.174;4.456;2022-12-10T10:41:54;124.57;;;30.73;;
25917;SDS011;13899;51.174;4.456;2022-12-10T10:44:23;141.70;;;31.48;;
25917;SDS011;13899;51.174;4.456;2022-12-10T10:46:51;118.18;;;32.60;;
25917;SDS011;13899;51.174;4.456;2022-12-10T10:49:25;129.45;;;29.88;;
25917;SDS011;13899;51.174;4.456;2022-12-10T10:52:06;117.43;;;26.83;;
25917;SDS011;13899;51.174;4.456;2022-12-10T10:54:40;98.70;;;25.02;;
25917;SDS011;13899;51.174;4.456;2022-12-10T10:59:48;100.80;;;29.85;;
25917;SDS011;13899;51.174;4.456;2022-12-10T11:04:53;112.93;;;33.35;;
25917;SDS011;13899;51.174;4.456;2022-12-10T11:09:52;100.50;;;28.08;;
25917;SDS011;13899;51.174;4.456;2022-12-10T11:14:57;94.57;;;28.30;;
25917;SDS011;13899;51.174;4.456;2022-12-10T11:17:24;83.37;;;26.67;;
25917;SDS011;13899;51.174;4.456;2022-12-10T11:22:35;100.72;;;29.23;;
25917;SDS011;13899;51.174;4.456;2022-12-10T11:25:00;72.67;;;22.10;;
25917;SDS011;13899;51.174;4.456;2022-12-10T11:27:37;92.57;;;22.17;;
25917;SDS011;13899;51.174;4.456;2022-12-10T11:30:09;106.13;;;30.15;;
25917;SDS011;13899;51.174;4.456;2022-12-10T11:56:47;99.80;;;31.08;;
25917;SDS011;13899;51.174;4.456;2022-12-10T12:02:15;97.13;;;27.38;;
25917;SDS011;13899;51.174;4.456;2022-12-10T12:10:31;89.20;;;26.60;;
25917;SDS011;13899;51.174;4.456;2022-12-10T12:18:28;86.15;;;26.40;;
25917;SDS011;13899;51.174;4.456;2022-12-10T12:21:27;64.83;;;19.77;;
25917;SDS011;13899;51.174;4.456;2022-12-10T12:24:28;84.85;;;27.98;;
25917;SDS011;13899;51.174;4.456;2022-12-10T12:32:31;87.53;;;27.40;;
25917;SDS011;13899;51.174;4.456;2022-12-10T12:35:14;92.90;;;26.65;;
25917;SDS011;13899;51.174;4.456;2022-12-10T12:37:53;81.10;;;27.23;;
25917;SDS011;13899;51.174;4.456;2022-12-10T12:40:30;94.45;;;26.85;;
25917;SDS011;13899;51.174;4.456;2022-12-10T12:43:02;84.53;;;26.70;;
25917;SDS011;13899;51.174;4.456;2022-12-10T12:51:11;73.35;;;24.33;;
25917;SDS011;13899;51.174;4.456;2022-12-10T12:53:41;78.55;;;25.52;;
25917;SDS011;13899;51.174;4.456;2022-12-10T12:56:17;74.68;;;24.05;;
25917;SDS011;13899;51.174;4.456;2022-12-10T13:01:37;96.37;;;26.13;;
25917;SDS011;13899;51.174;4.456;2022-12-10T13:04:08;86.10;;;26.98;;
25917;SDS011;13899;51.174;4.456;2022-12-10T13:06:39;86.45;;;25.95;;
25917;SDS011;13899;51.174;4.456;2022-12-10T13:14:47;88.38;;;26.92;;
25917;SDS011;13899;51.174;4.456;2022-12-10T13:31:06;82.35;;;24.98;;
25917;SDS011;13899;51.174;4.456;2022-12-10T13:36:27;87.43;;;27.33;;
25917;SDS011;13899;51.174;4.456;2022-12-10T13:39:31;73.20;;;26.60;;
25917;SDS011;13899;51.174;4.456;2022-12-10T13:44:50;72.05;;;26.65;;
25917;SDS011;13899;51.174;4.456;2022-12-10T13:53:03;78.18;;;24.50;;
25917;SDS011;13899;51.174;4.456;2022-12-10T13:55:46;64.57;;;23.15;;
25917;SDS011;13899;51.174;4.456;2022-12-10T14:01:29;69.13;;;24.08;;
25917;SDS011;13899;51.174;4.456;2022-12-10T14:07:02;74.55;;;26.08;;
25917;SDS011;13899;51.174;4.456;2022-12-10T14:09:33;65.90;;;22.27;;
25917;SDS011;13899;51.174;4.456;2022-12-10T14:12:04;84.15;;;27.20;;
25917;SDS011;13899;51.174;4.456;2022-12-10T14:14:39;74.32;;;25.23;;
25917;SDS011;13899;51.174;4.456;2022-12-10T14:17:12;75.95;;;24.63;;
25917;SDS011;13899;51.174;4.456;2022-12-10T14:20:00;73.95;;;24.38;;
25917;SDS011;13899;51.174;4.456;2022-12-10T14:22:39;81.75;;;29.25;;
25917;SDS011;13899;51.174;4.456;2022-12-10T14:25:14;68.00;;;23.55;;
25917;SDS011;13899;51.174;4.456;2022-12-10T14:27:43;74.40;;;24.35;;
25917;SDS011;13899;51.174;4.456;2022-12-10T14:30:15;74.88;;;26.90;;
25917;SDS011;13899;51.174;4.456;2022-12-10T14:32:43;67.80;;;23.83;;
25917;SDS011;13899;51.174;4.456;2022-12-10T14:35:13;62.13;;;22.83;;
25917;SDS011;13899;51.174;4.456;2022-12-10T14:37:47;77.28;;;25.42;;
25917;SDS011;13899;51.174;4.456;2022-12-10T14:40:23;84.78;;;26.10;;
25917;SDS011;13899;51.174;4.456;2022-12-10T14:42:53;82.80;;;26.42;;
25917;SDS011;13899;51.174;4.456;2022-12-10T14:45:25;84.68;;;26.45;;
25917;SDS011;13899;51.174;4.456;2022-12-10T14:47:56;73.07;;;21.30;;
25917;SDS011;13899;51.174;4.456;2022-12-10T14:50:25;83.18;;;28.02;;
25917;SDS011;13899;51.174;4.456;2022-12-10T14:52:53;81.45;;;28.20;;
25917;SDS011;13899;51.174;4.456;2022-12-10T14:55:20;83.63;;;29.57;;
25917;SDS011;13899;51.174;4.456;2022-12-10T14:57:49;82.95;;;28.55;;
25917;SDS011;13899;51.174;4.456;2022-12-10T15:00:20;81.88;;;25.33;;
25917;SDS011;13899;51.174;4.456;2022-12-10T15:02:48;77.63;;;26.38;;
25917;SDS011;13899;51.174;4.456;2022-12-10T15:05:31;77.95;;;26.85;;
25917;SDS011;13899;51.174;4.456;2022-12-10T15:08:02;81.65;;;28.30;;
25917;SDS011;13899;51.174;4.456;2022-12-10T15:10:38;80.30;;;25.75;;
25917;SDS011;13899;51.174;4.456;2022-12-10T15:13:05;80.53;;;24.50;;
25917;SDS011;13899;51.174;4.456;2022-12-10T15:15:37;78.80;;;26.50;;
25917;SDS011;13899;51.174;4.456;2022-12-10T15:20:46;83.20;;;26.77;;
25917;SDS011;13899;51.174;4.456;2022-12-10T15:28:26;80.65;;;26.95;;
25917;SDS011;13899;51.174;4.456;2022-12-10T15:33:54;85.03;;;27.33;;
25917;SDS011;13899;51.174;4.456;2022-12-10T15:38:51;85.20;;;26.70;;
25917;SDS011;13899;51.174;4.456;2022-12-10T15:41:50;71.13;;;23.10;;
25917;SDS011;13899;51.174;4.456;2022-12-10T15:46:56;91.72;;;28.27;;
25917;SDS011;13899;51.174;4.456;2022-12-10T15:49:28;87.55;;;27.40;;
25917;SDS011;13899;51.174;4.456;2022-12-10T15:51:54;94.97;;;27.58;;
25917;SDS011;13899;51.174;4.456;2022-12-10T15:56:48;88.35;;;26.73;;
25917;SDS011;13899;51.174;4.456;2022-12-10T15:59:13;95.00;;;29.67;;
25917;SDS011;13899;51.174;4.456;2022-12-10T16:01:39;87.90;;;25.70;;
25917;SDS011;13899;51.174;4.456;2022-12-10T16:04:05;79.50;;;22.63;;
25917;SDS011;13899;51.174;4.456;2022-12-10T16:06:31;68.00;;;17.80;;
25917;SDS011;13899;51.174;4.456;2022-12-10T16:08:57;69.33;;;21.07;;
25917;SDS011;13899;51.174;4.456;2022-12-10T16:11:25;99.35;;;28.45;;
25917;SDS011;13899;51.174;4.456;2022-12-10T16:13:52;109.10;;;28.90;;
25917;SDS011;13899;51.174;4.456;2022-12-10T16:16:22;95.90;;;29.40;;
25917;SDS011;13899;51.174;4.456;2022-12-10T16:18:49;95.68;;;28.85;;
25917;SDS011;13899;51.174;4.456;2022-12-10T16:21:15;108.13;;;30.17;;
25917;SDS011;13899;51.174;4.456;2022-12-10T16:23:41;102.47;;;28.80;;
25917;SDS011;13899;51.174;4.456;2022-12-10T16:26:26;106.65;;;29.73;;
25917;SDS011;13899;51.174;4.456;2022-12-10T16:29:03;99.45;;;29.58;;
25917;SDS011;13899;51.174;4.456;2022-12-10T16:31:29;105.32;;;30.13;;
25917;SDS011;13899;51.174;4.456;2022-12-10T16:33:54;118.20;;;32.40;;
25917;SDS011;13899;51.174;4.456;2022-12-10T16:36:22;97.57;;;29.55;;
25917;SDS011;13899;51.174;4.456;2022-12-10T16:41:19;100.97;;;29.60;;
25917;SDS011;13899;51.174;4.456;2022-12-10T16:43:48;96.50;;;30.63;;
25917;SDS011;13899;51.174;4.456;2022-12-10T16:46:14;97.77;;;30.83;;
25917;SDS011;13899;51.174;4.456;2022-12-10T16:48:57;95.85;;;29.63;;
25917;SDS011;13899;51.174;4.456;2022-12-10T16:51:29;62.33;;;23.38;;
25917;SDS011;13899;51.174;4.456;2022-12-10T16:53:57;103.43;;;30.08;;
25917;SDS011;13899;51.174;4.456;2022-12-10T16:56:38;101.95;;;29.48;;
25917;SDS011;13899;51.174;4.456;2022-12-10T16:59:08;97.50;;;31.38;;
25917;SDS011;13899;51.174;4.456;2022-12-10T17:01:40;108.85;;;30.73;;
25917;SDS011;13899;51.174;4.456;2022-12-10T17:04:14;98.68;;;30.17;;